sensor_id;sensor_type;location;lat;lon;timestamp;P1;durP1;ratioP1;P2;durP2;ratioP2
75858;SDS011;64504;51.308;8.620;2023-02-15T00:01:33;2.45;;;2.25;;
75858;SDS011;64504;51.308;8.620;2023-02-15T00:03:59;1.92;;;1.83;;
75858;SDS011;64504;51.308;8.620;2023-02-15T00:06:24;3.45;;;2.47;;
75858;SDS011;64504;51.308;8.620;2023-02-15T00:08:50;3.75;;;2.72;;
75858;SDS011;64504;51.308;8.620;2023-02-15T00:11:16;2.88;;;2.38;;
75858;SDS011;64504;51.308;8.620;2023-02-15T00:14:03;3.13;;;2.42;;
75858;SDS011;64504;51.308;8.620;2023-02-15T00:16:30;2.50;;;1.92;;
75858;SDS011;64504;51.308;8.620;2023-02-15T00:18:55;8.50;;;2.88;;
75858;SDS011;64504;51.308;8.620;2023-02-15T00:21:20;3.47;;;2.78;;
75858;SDS011;64504;51.308;8.620;2023-02-15T00:23:46;2.13;;;1.92;;
75858;SDS011;64504;51.308;8.620;2023-02-15T00:26:11;3.53;;;1.80;;
75858;SDS011;64504;51.308;8.620;2023-02-15T00:28:37;2.00;;;1.70;;
75858;SDS011;64504;51.308;8.620;2023-02-15T00:31:07;2.28;;;1.92;;
75858;SDS011;64504;51.308;8.620;2023-02-15T00:33:36;2.95;;;2.45;;
75858;SDS011;64504;51.308;8.620;2023-02-15T00:36:02;2.10;;;1.90;;
75858;SDS011;64504;51.308;8.620;2023-02-15T00:38:29;3.97;;;2.35;;
75858;SDS011;64504;51.308;8.620;2023-02-15T00:40:55;3.13;;;2.67;;
75858;SDS011;64504;51.308;8.620;2023-02-15T00:43:22;3.55;;;2.20;;
75858;SDS011;64504;51.308;8.620;2023-02-15T00:45:48;1.15;;;1.05;;
75858;SDS011;64504;51.308;8.620;2023-02-15T00:48:13;1.65;;;1.55;;
75858;SDS011;64504;51.308;8.620;2023-02-15T00:50:38;1.88;;;1.77;;
75858;SDS011;64504;51.308;8.620;2023-02-15T00:53:04;2.45;;;1.90;;
75858;SDS011;64504;51.308;8.620;2023-02-15T00:55:30;4.25;;;2.05;;
75858;SDS011;64504;51.308;8.620;2023-02-15T00:57:55;2.55;;;2.10;;
75858;SDS011;64504;51.308;8.620;2023-02-15T01:00:20;6.28;;;1.63;;
75858;SDS011;64504;51.308;8.620;2023-02-15T01:02:46;2.67;;;1.88;;
75858;SDS011;64504;51.308;8.620;2023-02-15T01:05:11;3.78;;;1.50;;
75858;SDS011;64504;51.308;8.620;2023-02-15T01:07:37;1.83;;;1.63;;
75858;SDS011;64504;51.308;8.620;2023-02-15T01:10:03;2.65;;;2.33;;
75858;SDS011;64504;51.308;8.620;2023-02-15T01:12:30;2.53;;;1.75;;
75858;SDS011;64504;51.308;8.620;2023-02-15T01:14:55;4.10;;;2.20;;
75858;SDS011;64504;51.308;8.620;2023-02-15T01:17:21;3.38;;;2.10;;
75858;SDS011;64504;51.308;8.620;2023-02-15T01:19:46;2.67;;;1.88;;
75858;SDS011;64504;51.308;8.620;2023-02-15T01:22:11;2.15;;;1.90;;
75858;SDS011;64504;51.308;8.620;2023-02-15T01:24:36;2.03;;;1.60;;
75858;SDS011;64504;51.308;8.620;2023-02-15T01:27:02;3.17;;;2.60;;
75858;SDS011;64504;51.308;8.620;2023-02-15T01:29:27;3.22;;;2.17;;
75858;SDS011;64504;51.308;8.620;2023-02-15T01:31:53;2.90;;;2.42;;
75858;SDS011;64504;51.308;8.620;2023-02-15T01:34:18;3.33;;;2.53;;
75858;SDS011;64504;51.308;8.620;2023-02-15T01:36:43;3.80;;;2.20;;
75858;SDS011;64504;51.308;8.620;2023-02-15T01:39:09;2.83;;;2.05;;
75858;SDS011;64504;51.308;8.620;2023-02-15T01:41:35;1.42;;;1.33;;
75858;SDS011;64504;51.308;8.620;2023-02-15T01:44:01;2.20;;;1.80;;
75858;SDS011;64504;51.308;8.620;2023-02-15T01:46:30;2.08;;;1.88;;
75858;SDS011;64504;51.308;8.620;2023-02-15T01:49:08;2.72;;;2.22;;
75858;SDS011;64504;51.308;8.620;2023-02-15T01:51:39;2.90;;;2.05;;
75858;SDS011;64504;51.308;8.620;2023-02-15T01:54:26;1.38;;;1.27;;
75858;SDS011;64504;51.308;8.620;2023-02-15T01:56:54;3.28;;;2.20;;
75858;SDS011;64504;51.308;8.620;2023-02-15T01:59:27;3.42;;;1.55;;
75858;SDS011;64504;51.308;8.620;2023-02-15T02:01:53;2.22;;;1.70;;
75858;SDS011;64504;51.308;8.620;2023-02-15T02:06:49;3.25;;;2.03;;
75858;SDS011;64504;51.308;8.620;2023-02-15T02:09:15;2.22;;;1.70;;
75858;SDS011;64504;51.308;8.620;2023-02-15T02:11:40;1.55;;;1.45;;
75858;SDS011;64504;51.308;8.620;2023-02-15T02:14:07;2.53;;;2.30;;
75858;SDS011;64504;51.308;8.620;2023-02-15T02:16:52;1.95;;;1.85;;
75858;SDS011;64504;51.308;8.620;2023-02-15T02:25:21;3.05;;;1.92;;
75858;SDS011;64504;51.308;8.620;2023-02-15T02:34:01;2.85;;;2.20;;
75858;SDS011;64504;51.308;8.620;2023-02-15T02:36:55;4.40;;;3.15;;
75858;SDS011;64504;51.308;8.620;2023-02-15T02:41:58;2.97;;;2.50;;
75858;SDS011;64504;51.308;8.620;2023-02-15T02:44:44;2.75;;;2.35;;
75858;SDS011;64504;51.308;8.620;2023-02-15T02:47:18;3.35;;;3.05;;
75858;SDS011;64504;51.308;8.620;2023-02-15T02:49:51;4.82;;;3.45;;
75858;SDS011;64504;51.308;8.620;2023-02-15T02:55:06;5.10;;;4.30;;
75858;SDS011;64504;51.308;8.620;2023-02-15T02:57:37;4.72;;;3.33;;
75858;SDS011;64504;51.308;8.620;2023-02-15T03:00:05;4.03;;;3.55;;
75858;SDS011;64504;51.308;8.620;2023-02-15T03:02:35;4.50;;;3.00;;
75858;SDS011;64504;51.308;8.620;2023-02-15T03:05:03;6.43;;;4.13;;
75858;SDS011;64504;51.308;8.620;2023-02-15T03:10:03;3.45;;;2.92;;
75858;SDS011;64504;51.308;8.620;2023-02-15T03:12:32;5.35;;;3.75;;
75858;SDS011;64504;51.308;8.620;2023-02-15T03:15:06;5.50;;;4.00;;
75858;SDS011;64504;51.308;8.620;2023-02-15T03:17:37;7.15;;;4.72;;
75858;SDS011;64504;51.308;8.620;2023-02-15T03:20:14;8.43;;;3.65;;
75858;SDS011;64504;51.308;8.620;2023-02-15T03:22:51;4.90;;;3.85;;
75858;SDS011;64504;51.308;8.620;2023-02-15T03:25:20;3.88;;;3.25;;
75858;SDS011;64504;51.308;8.620;2023-02-15T03:27:56;5.32;;;4.07;;
75858;SDS011;64504;51.308;8.620;2023-02-15T03:30:26;4.45;;;4.05;;
75858;SDS011;64504;51.308;8.620;2023-02-15T03:32:53;5.45;;;4.05;;
75858;SDS011;64504;51.308;8.620;2023-02-15T03:35:20;7.00;;;4.80;;
75858;SDS011;64504;51.308;8.620;2023-02-15T03:37:48;7.20;;;4.10;;
75858;SDS011;64504;51.308;8.620;2023-02-15T03:40:26;3.67;;;3.38;;
75858;SDS011;64504;51.308;8.620;2023-02-15T03:43:40;3.60;;;3.30;;
75858;SDS011;64504;51.308;8.620;2023-02-15T03:46:17;3.78;;;3.38;;
75858;SDS011;64504;51.308;8.620;2023-02-15T03:48:54;4.10;;;3.70;;
75858;SDS011;64504;51.308;8.620;2023-02-15T03:51:23;4.30;;;3.90;;
75858;SDS011;64504;51.308;8.620;2023-02-15T03:54:06;8.02;;;4.68;;
75858;SDS011;64504;51.308;8.620;2023-02-15T03:56:42;5.88;;;4.20;;
75858;SDS011;64504;51.308;8.620;2023-02-15T03:59:31;5.22;;;3.78;;
75858;SDS011;64504;51.308;8.620;2023-02-15T04:02:18;4.95;;;4.28;;
75858;SDS011;64504;51.308;8.620;2023-02-15T04:04:47;12.02;;;3.83;;
75858;SDS011;64504;51.308;8.620;2023-02-15T04:07:13;5.55;;;3.40;;
75858;SDS011;64504;51.308;8.620;2023-02-15T04:09:38;11.52;;;3.63;;
75858;SDS011;64504;51.308;8.620;2023-02-15T04:12:22;4.45;;;4.05;;
75858;SDS011;64504;51.308;8.620;2023-02-15T04:14:48;7.00;;;4.75;;
75858;SDS011;64504;51.308;8.620;2023-02-15T04:17:35;9.02;;;4.20;;
75858;SDS011;64504;51.308;8.620;2023-02-15T04:20:01;5.13;;;3.70;;
75858;SDS011;64504;51.308;8.620;2023-02-15T04:22:45;4.10;;;3.55;;
75858;SDS011;64504;51.308;8.620;2023-02-15T04:25:29;4.43;;;3.95;;
75858;SDS011;64504;51.308;8.620;2023-02-15T04:27:54;4.13;;;3.75;;
75858;SDS011;64504;51.308;8.620;2023-02-15T04:30:24;6.75;;;4.47;;
75858;SDS011;64504;51.308;8.620;2023-02-15T04:32:49;4.40;;;3.17;;
75858;SDS011;64504;51.308;8.620;2023-02-15T04:35:16;4.15;;;3.75;;
75858;SDS011;64504;51.308;8.620;2023-02-15T04:37:41;6.43;;;4.25;;
75858;SDS011;64504;51.308;8.620;2023-02-15T04:40:08;4.88;;;4.32;;
75858;SDS011;64504;51.308;8.620;2023-02-15T04:42:34;7.15;;;4.30;;
75858;SDS011;64504;51.308;8.620;2023-02-15T04:45:00;4.78;;;3.92;;
75858;SDS011;64504;51.308;8.620;2023-02-15T04:47:25;4.43;;;3.70;;
75858;SDS011;64504;51.308;8.620;2023-02-15T04:49:50;3.75;;;3.45;;
75858;SDS011;64504;51.308;8.620;2023-02-15T04:52:16;3.88;;;3.47;;
75858;SDS011;64504;51.308;8.620;2023-02-15T04:54:45;9.00;;;3.92;;
75858;SDS011;64504;51.308;8.620;2023-02-15T04:57:13;7.45;;;4.28;;
75858;SDS011;64504;51.308;8.620;2023-02-15T04:59:39;5.05;;;3.75;;
75858;SDS011;64504;51.308;8.620;2023-02-15T05:02:04;9.05;;;4.07;;
75858;SDS011;64504;51.308;8.620;2023-02-15T05:04:30;3.72;;;3.38;;
75858;SDS011;64504;51.308;8.620;2023-02-15T05:06:55;3.15;;;2.90;;
75858;SDS011;64504;51.308;8.620;2023-02-15T05:09:33;8.25;;;4.13;;
75858;SDS011;64504;51.308;8.620;2023-02-15T05:14:30;2.63;;;2.13;;
75858;SDS011;64504;51.308;8.620;2023-02-15T05:16:55;4.30;;;3.28;;
75858;SDS011;64504;51.308;8.620;2023-02-15T05:19:26;5.68;;;4.60;;
75858;SDS011;64504;51.308;8.620;2023-02-15T05:21:51;6.18;;;4.57;;
75858;SDS011;64504;51.308;8.620;2023-02-15T05:24:18;4.78;;;3.83;;
75858;SDS011;64504;51.308;8.620;2023-02-15T05:27:05;4.90;;;3.28;;
75858;SDS011;64504;51.308;8.620;2023-02-15T05:29:49;3.28;;;3.05;;
75858;SDS011;64504;51.308;8.620;2023-02-15T05:32:14;6.45;;;4.15;;
75858;SDS011;64504;51.308;8.620;2023-02-15T05:34:40;6.63;;;4.72;;
75858;SDS011;64504;51.308;8.620;2023-02-15T05:37:05;5.68;;;4.18;;
75858;SDS011;64504;51.308;8.620;2023-02-15T05:39:33;5.20;;;3.83;;
75858;SDS011;64504;51.308;8.620;2023-02-15T05:41:59;6.95;;;3.35;;
75858;SDS011;64504;51.308;8.620;2023-02-15T05:44:25;4.55;;;3.22;;
75858;SDS011;64504;51.308;8.620;2023-02-15T05:46:51;6.05;;;3.45;;
75858;SDS011;64504;51.308;8.620;2023-02-15T05:49:16;5.38;;;3.03;;
75858;SDS011;64504;51.308;8.620;2023-02-15T05:51:42;3.75;;;2.63;;
75858;SDS011;64504;51.308;8.620;2023-02-15T05:54:08;2.83;;;2.63;;
75858;SDS011;64504;51.308;8.620;2023-02-15T05:56:34;4.13;;;3.20;;
75858;SDS011;64504;51.308;8.620;2023-02-15T05:59:04;2.33;;;2.13;;
75858;SDS011;64504;51.308;8.620;2023-02-15T06:01:30;4.75;;;3.33;;
75858;SDS011;64504;51.308;8.620;2023-02-15T06:03:55;4.07;;;3.55;;
75858;SDS011;64504;51.308;8.620;2023-02-15T06:06:23;8.90;;;3.97;;
75858;SDS011;64504;51.308;8.620;2023-02-15T06:08:50;4.28;;;3.22;;
75858;SDS011;64504;51.308;8.620;2023-02-15T06:11:16;5.10;;;4.00;;
75858;SDS011;64504;51.308;8.620;2023-02-15T06:13:42;2.67;;;2.47;;
75858;SDS011;64504;51.308;8.620;2023-02-15T06:16:08;7.85;;;4.53;;
75858;SDS011;64504;51.308;8.620;2023-02-15T06:18:37;11.00;;;8.68;;
75858;SDS011;64504;51.308;8.620;2023-02-15T06:21:02;17.00;;;9.32;;
75858;SDS011;64504;51.308;8.620;2023-02-15T06:23:30;6.00;;;5.43;;
75858;SDS011;64504;51.308;8.620;2023-02-15T06:26:06;7.75;;;5.22;;
75858;SDS011;64504;51.308;8.620;2023-02-15T06:28:36;11.50;;;4.93;;
75858;SDS011;64504;51.308;8.620;2023-02-15T06:33:54;11.38;;;6.40;;
75858;SDS011;64504;51.308;8.620;2023-02-15T06:36:26;8.13;;;4.88;;
75858;SDS011;64504;51.308;8.620;2023-02-15T06:38:52;5.05;;;4.57;;
75858;SDS011;64504;51.308;8.620;2023-02-15T06:41:19;5.88;;;3.67;;
75858;SDS011;64504;51.308;8.620;2023-02-15T06:43:47;5.93;;;3.63;;
75858;SDS011;64504;51.308;8.620;2023-02-15T06:46:31;6.68;;;4.82;;
75858;SDS011;64504;51.308;8.620;2023-02-15T06:49:00;5.03;;;3.67;;
75858;SDS011;64504;51.308;8.620;2023-02-15T06:51:26;9.07;;;4.85;;
75858;SDS011;64504;51.308;8.620;2023-02-15T06:53:51;4.93;;;3.97;;
75858;SDS011;64504;51.308;8.620;2023-02-15T06:56:16;11.88;;;5.55;;
75858;SDS011;64504;51.308;8.620;2023-02-15T06:58:42;6.53;;;4.45;;
75858;SDS011;64504;51.308;8.620;2023-02-15T07:01:09;5.80;;;3.53;;
75858;SDS011;64504;51.308;8.620;2023-02-15T07:03:40;6.80;;;3.75;;
75858;SDS011;64504;51.308;8.620;2023-02-15T07:06:09;3.83;;;3.42;;
75858;SDS011;64504;51.308;8.620;2023-02-15T07:08:50;4.45;;;3.63;;
75858;SDS011;64504;51.308;8.620;2023-02-15T07:11:16;3.67;;;2.72;;
75858;SDS011;64504;51.308;8.620;2023-02-15T07:14:00;6.78;;;3.70;;
75858;SDS011;64504;51.308;8.620;2023-02-15T07:16:26;4.18;;;3.45;;
75858;SDS011;64504;51.308;8.620;2023-02-15T07:18:53;3.08;;;2.78;;
75858;SDS011;64504;51.308;8.620;2023-02-15T07:21:22;4.22;;;2.97;;
75858;SDS011;64504;51.308;8.620;2023-02-15T07:23:47;10.05;;;4.32;;
75858;SDS011;64504;51.308;8.620;2023-02-15T07:26:15;6.10;;;3.45;;
75858;SDS011;64504;51.308;8.620;2023-02-15T07:28:42;4.95;;;3.58;;
75858;SDS011;64504;51.308;8.620;2023-02-15T07:31:08;5.55;;;4.63;;
75858;SDS011;64504;51.308;8.620;2023-02-15T07:33:33;4.20;;;3.15;;
75858;SDS011;64504;51.308;8.620;2023-02-15T07:36:00;4.40;;;4.00;;
75858;SDS011;64504;51.308;8.620;2023-02-15T07:38:27;6.38;;;5.45;;
75858;SDS011;64504;51.308;8.620;2023-02-15T07:40:59;9.45;;;5.78;;
75858;SDS011;64504;51.308;8.620;2023-02-15T07:43:33;8.02;;;5.47;;
75858;SDS011;64504;51.308;8.620;2023-02-15T07:46:00;6.93;;;4.45;;
75858;SDS011;64504;51.308;8.620;2023-02-15T07:48:26;4.90;;;3.75;;
75858;SDS011;64504;51.308;8.620;2023-02-15T07:50:59;5.80;;;3.00;;
75858;SDS011;64504;51.308;8.620;2023-02-15T07:53:29;4.68;;;3.63;;
75858;SDS011;64504;51.308;8.620;2023-02-15T07:55:58;3.72;;;3.42;;
75858;SDS011;64504;51.308;8.620;2023-02-15T07:58:28;5.82;;;3.40;;
75858;SDS011;64504;51.308;8.620;2023-02-15T08:01:23;7.05;;;4.55;;
75858;SDS011;64504;51.308;8.620;2023-02-15T08:03:53;5.05;;;3.17;;
75858;SDS011;64504;51.308;8.620;2023-02-15T08:06:19;4.40;;;3.90;;
75858;SDS011;64504;51.308;8.620;2023-02-15T08:08:46;4.50;;;3.03;;
75858;SDS011;64504;51.308;8.620;2023-02-15T08:14:01;2.95;;;2.05;;
75858;SDS011;64504;51.308;8.620;2023-02-15T08:16:37;3.47;;;2.75;;
75858;SDS011;64504;51.308;8.620;2023-02-15T08:19:11;3.28;;;2.38;;
75858;SDS011;64504;51.308;8.620;2023-02-15T08:21:50;2.30;;;2.05;;
75858;SDS011;64504;51.308;8.620;2023-02-15T08:24:22;4.35;;;2.42;;
75858;SDS011;64504;51.308;8.620;2023-02-15T08:26:50;4.80;;;2.05;;
75858;SDS011;64504;51.308;8.620;2023-02-15T08:29:17;3.95;;;2.47;;
75858;SDS011;64504;51.308;8.620;2023-02-15T08:31:44;4.15;;;2.70;;
75858;SDS011;64504;51.308;8.620;2023-02-15T08:34:11;2.47;;;2.10;;
75858;SDS011;64504;51.308;8.620;2023-02-15T08:36:38;3.80;;;2.58;;
75858;SDS011;64504;51.308;8.620;2023-02-15T08:39:04;2.47;;;1.67;;
75858;SDS011;64504;51.308;8.620;2023-02-15T08:41:31;2.88;;;2.58;;
75858;SDS011;64504;51.308;8.620;2023-02-15T08:44:00;1.65;;;1.52;;
75858;SDS011;64504;51.308;8.620;2023-02-15T08:46:29;2.55;;;2.35;;
75858;SDS011;64504;51.308;8.620;2023-02-15T08:48:55;2.92;;;2.22;;
75858;SDS011;64504;51.308;8.620;2023-02-15T08:51:22;2.88;;;2.67;;
75858;SDS011;64504;51.308;8.620;2023-02-15T08:53:50;1.48;;;1.33;;
75858;SDS011;64504;51.308;8.620;2023-02-15T08:56:17;2.80;;;1.92;;
75858;SDS011;64504;51.308;8.620;2023-02-15T08:58:43;7.25;;;1.95;;
75858;SDS011;64504;51.308;8.620;2023-02-15T09:01:16;1.80;;;1.23;;
75858;SDS011;64504;51.308;8.620;2023-02-15T09:03:43;2.20;;;1.80;;
75858;SDS011;64504;51.308;8.620;2023-02-15T09:06:09;3.67;;;2.13;;
75858;SDS011;64504;51.308;8.620;2023-02-15T09:08:37;3.15;;;1.63;;
75858;SDS011;64504;51.308;8.620;2023-02-15T09:11:09;1.98;;;0.95;;
75858;SDS011;64504;51.308;8.620;2023-02-15T09:13:37;1.92;;;1.67;;
75858;SDS011;64504;51.308;8.620;2023-02-15T09:16:04;2.17;;;1.60;;
75858;SDS011;64504;51.308;8.620;2023-02-15T09:18:32;3.67;;;2.30;;
75858;SDS011;64504;51.308;8.620;2023-02-15T09:21:10;3.85;;;1.60;;
75858;SDS011;64504;51.308;8.620;2023-02-15T09:23:44;2.42;;;1.98;;
75858;SDS011;64504;51.308;8.620;2023-02-15T09:26:14;7.38;;;2.45;;
75858;SDS011;64504;51.308;8.620;2023-02-15T09:28:42;2.85;;;1.90;;
75858;SDS011;64504;51.308;8.620;2023-02-15T09:31:15;2.95;;;2.08;;
75858;SDS011;64504;51.308;8.620;2023-02-15T09:33:42;2.58;;;2.38;;
75858;SDS011;64504;51.308;8.620;2023-02-15T09:36:19;2.28;;;2.08;;
75858;SDS011;64504;51.308;8.620;2023-02-15T09:38:45;2.85;;;2.58;;
75858;SDS011;64504;51.308;8.620;2023-02-15T09:41:24;1.77;;;1.55;;
75858;SDS011;64504;51.308;8.620;2023-02-15T09:47:13;2.75;;;2.55;;
75858;SDS011;64504;51.308;8.620;2023-02-15T10:08:26;2.53;;;1.85;;
75858;SDS011;64504;51.308;8.620;2023-02-15T10:11:26;7.22;;;2.92;;
75858;SDS011;64504;51.308;8.620;2023-02-15T10:17:14;2.35;;;2.15;;
75858;SDS011;64504;51.308;8.620;2023-02-15T10:28:19;4.25;;;2.70;;
75858;SDS011;64504;51.308;8.620;2023-02-15T10:30:48;1.88;;;1.77;;
75858;SDS011;64504;51.308;8.620;2023-02-15T10:36:10;2.85;;;2.00;;
75858;SDS011;64504;51.308;8.620;2023-02-15T10:47:11;5.45;;;1.52;;
75858;SDS011;64504;51.308;8.620;2023-02-15T10:52:44;0.63;;;0.57;;
75858;SDS011;64504;51.308;8.620;2023-02-15T10:56:00;2.72;;;0.75;;
75858;SDS011;64504;51.308;8.620;2023-02-15T11:01:12;0.95;;;0.52;;
75858;SDS011;64504;51.308;8.620;2023-02-15T11:06:36;0.63;;;0.52;;
75858;SDS011;64504;51.308;8.620;2023-02-15T11:09:05;1.40;;;1.13;;
75858;SDS011;64504;51.308;8.620;2023-02-15T11:11:41;0.77;;;0.68;;
75858;SDS011;64504;51.308;8.620;2023-02-15T11:14:15;0.75;;;0.75;;
75858;SDS011;64504;51.308;8.620;2023-02-15T11:16:46;0.38;;;0.38;;
75858;SDS011;64504;51.308;8.620;2023-02-15T11:19:17;0.47;;;0.47;;
75858;SDS011;64504;51.308;8.620;2023-02-15T11:21:50;0.40;;;0.40;;
75858;SDS011;64504;51.308;8.620;2023-02-15T11:24:21;7.25;;;1.15;;
75858;SDS011;64504;51.308;8.620;2023-02-15T11:26:51;0.40;;;0.40;;
75858;SDS011;64504;51.308;8.620;2023-02-15T11:32:12;6.18;;;1.02;;
75858;SDS011;64504;51.308;8.620;2023-02-15T11:35:00;0.40;;;0.40;;
75858;SDS011;64504;51.308;8.620;2023-02-15T11:40:35;0.40;;;0.40;;
75858;SDS011;64504;51.308;8.620;2023-02-15T11:46:00;0.55;;;0.55;;
75858;SDS011;64504;51.308;8.620;2023-02-15T11:48:26;1.67;;;0.68;;
75858;SDS011;64504;51.308;8.620;2023-02-15T11:50:56;0.55;;;0.55;;
75858;SDS011;64504;51.308;8.620;2023-02-15T11:53:21;0.50;;;0.43;;
75858;SDS011;64504;51.308;8.620;2023-02-15T11:55:51;1.60;;;0.80;;
75858;SDS011;64504;51.308;8.620;2023-02-15T12:01:10;0.60;;;0.60;;
75858;SDS011;64504;51.308;8.620;2023-02-15T12:03:45;0.45;;;0.45;;
75858;SDS011;64504;51.308;8.620;2023-02-15T12:06:28;0.93;;;0.70;;
75858;SDS011;64504;51.308;8.620;2023-02-15T12:11:39;1.08;;;0.70;;
75858;SDS011;64504;51.308;8.620;2023-02-15T12:14:08;1.02;;;1.02;;
75858;SDS011;64504;51.308;8.620;2023-02-15T12:16:40;0.75;;;0.75;;
75858;SDS011;64504;51.308;8.620;2023-02-15T12:19:10;0.52;;;0.52;;
75858;SDS011;64504;51.308;8.620;2023-02-15T12:21:42;0.83;;;0.70;;
75858;SDS011;64504;51.308;8.620;2023-02-15T12:24:25;0.65;;;0.65;;
75858;SDS011;64504;51.308;8.620;2023-02-15T12:27:01;0.50;;;0.50;;
75858;SDS011;64504;51.308;8.620;2023-02-15T12:29:30;0.90;;;0.90;;
75858;SDS011;64504;51.308;8.620;2023-02-15T12:31:58;2.40;;;0.80;;
75858;SDS011;64504;51.308;8.620;2023-02-15T12:36:56;0.88;;;0.57;;
75858;SDS011;64504;51.308;8.620;2023-02-15T12:39:29;1.63;;;1.38;;
75858;SDS011;64504;51.308;8.620;2023-02-15T12:41:59;4.90;;;0.85;;
75858;SDS011;64504;51.308;8.620;2023-02-15T12:44:33;3.75;;;1.02;;
75858;SDS011;64504;51.308;8.620;2023-02-15T12:47:20;1.23;;;1.10;;
75858;SDS011;64504;51.308;8.620;2023-02-15T12:50:04;1.58;;;1.33;;
75858;SDS011;64504;51.308;8.620;2023-02-15T12:52:43;1.27;;;1.17;;
75858;SDS011;64504;51.308;8.620;2023-02-15T12:55:26;1.33;;;0.90;;
75858;SDS011;64504;51.308;8.620;2023-02-15T13:00:43;1.83;;;1.42;;
75858;SDS011;64504;51.308;8.620;2023-02-15T13:03:19;3.03;;;1.40;;
75858;SDS011;64504;51.308;8.620;2023-02-15T13:05:53;2.45;;;1.33;;
75858;SDS011;64504;51.308;8.620;2023-02-15T13:08:35;2.05;;;1.73;;
75858;SDS011;64504;51.308;8.620;2023-02-15T13:11:11;4.47;;;1.73;;
75858;SDS011;64504;51.308;8.620;2023-02-15T13:13:47;5.28;;;1.33;;
75858;SDS011;64504;51.308;8.620;2023-02-15T13:16:16;9.68;;;2.22;;
75858;SDS011;64504;51.308;8.620;2023-02-15T13:18:51;2.78;;;1.88;;
75858;SDS011;64504;51.308;8.620;2023-02-15T13:21:21;2.03;;;1.92;;
75858;SDS011;64504;51.308;8.620;2023-02-15T13:23:57;2.88;;;2.22;;
75858;SDS011;64504;51.308;8.620;2023-02-15T13:26:29;1.55;;;1.15;;
75858;SDS011;64504;51.308;8.620;2023-02-15T13:28:57;2.72;;;1.70;;
75858;SDS011;64504;51.308;8.620;2023-02-15T13:31:27;3.33;;;1.30;;
75858;SDS011;64504;51.308;8.620;2023-02-15T13:34:44;2.25;;;2.05;;
75858;SDS011;64504;51.308;8.620;2023-02-15T13:42:25;3.17;;;1.98;;
75858;SDS011;64504;51.308;8.620;2023-02-15T13:47:43;2.10;;;1.92;;
75858;SDS011;64504;51.308;8.620;2023-02-15T13:50:20;1.75;;;1.58;;
75858;SDS011;64504;51.308;8.620;2023-02-15T13:53:01;2.38;;;1.60;;
75858;SDS011;64504;51.308;8.620;2023-02-15T13:55:43;3.78;;;2.13;;
75858;SDS011;64504;51.308;8.620;2023-02-15T13:58:36;3.67;;;2.30;;
75858;SDS011;64504;51.308;8.620;2023-02-15T14:01:26;3.50;;;2.45;;
75858;SDS011;64504;51.308;8.620;2023-02-15T14:04:00;1.80;;;1.70;;
75858;SDS011;64504;51.308;8.620;2023-02-15T14:14:36;2.83;;;2.50;;
75858;SDS011;64504;51.308;8.620;2023-02-15T14:17:23;3.33;;;2.33;;
75858;SDS011;64504;51.308;8.620;2023-02-15T14:31:47;2.10;;;1.98;;
75858;SDS011;64504;51.308;8.620;2023-02-15T14:34:57;2.60;;;2.08;;
75858;SDS011;64504;51.308;8.620;2023-02-15T14:37:16;3.70;;;2.40;;
75858;SDS011;64504;51.308;8.620;2023-02-15T14:39:57;3.75;;;2.13;;
75858;SDS011;64504;51.308;8.620;2023-02-15T14:42:51;2.55;;;2.03;;
75858;SDS011;64504;51.308;8.620;2023-02-15T14:45:20;3.15;;;2.10;;
75858;SDS011;64504;51.308;8.620;2023-02-15T14:47:51;2.45;;;2.00;;
75858;SDS011;64504;51.308;8.620;2023-02-15T14:50:36;2.78;;;2.03;;
75858;SDS011;64504;51.308;8.620;2023-02-15T14:53:24;3.33;;;1.65;;
75858;SDS011;64504;51.308;8.620;2023-02-15T14:58:38;6.20;;;2.10;;
75858;SDS011;64504;51.308;8.620;2023-02-15T15:01:11;6.72;;;2.55;;
75858;SDS011;64504;51.308;8.620;2023-02-15T15:03:50;2.60;;;1.67;;
75858;SDS011;64504;51.308;8.620;2023-02-15T15:06:28;3.53;;;2.25;;
75858;SDS011;64504;51.308;8.620;2023-02-15T15:08:58;2.72;;;2.20;;
75858;SDS011;64504;51.308;8.620;2023-02-15T15:13:58;2.65;;;2.05;;
75858;SDS011;64504;51.308;8.620;2023-02-15T15:16:57;1.67;;;1.58;;
75858;SDS011;64504;51.308;8.620;2023-02-15T15:22:28;5.25;;;2.50;;
75858;SDS011;64504;51.308;8.620;2023-02-15T15:25:02;3.63;;;1.75;;
75858;SDS011;64504;51.308;8.620;2023-02-15T15:27:39;3.10;;;2.35;;
75858;SDS011;64504;51.308;8.620;2023-02-15T15:40:47;1.38;;;1.27;;
75858;SDS011;64504;51.308;8.620;2023-02-15T15:46:31;3.13;;;2.10;;
75858;SDS011;64504;51.308;8.620;2023-02-15T15:49:08;1.85;;;1.75;;
75858;SDS011;64504;51.308;8.620;2023-02-15T15:51:37;5.65;;;2.95;;
75858;SDS011;64504;51.308;8.620;2023-02-15T15:54:05;1.70;;;1.60;;
75858;SDS011;64504;51.308;8.620;2023-02-15T15:56:31;2.38;;;1.15;;
75858;SDS011;64504;51.308;8.620;2023-02-15T15:59:00;1.95;;;1.73;;
75858;SDS011;64504;51.308;8.620;2023-02-15T16:01:28;7.70;;;2.88;;
75858;SDS011;64504;51.308;8.620;2023-02-15T16:03:56;12.27;;;2.97;;
75858;SDS011;64504;51.308;8.620;2023-02-15T16:06:30;3.15;;;2.30;;
75858;SDS011;64504;51.308;8.620;2023-02-15T16:09:10;4.32;;;3.53;;
75858;SDS011;64504;51.308;8.620;2023-02-15T16:11:46;4.75;;;2.78;;
75858;SDS011;64504;51.308;8.620;2023-02-15T16:14:21;5.70;;;3.67;;
75858;SDS011;64504;51.308;8.620;2023-02-15T16:16:51;2.40;;;2.15;;
75858;SDS011;64504;51.308;8.620;2023-02-15T16:19:20;8.25;;;3.35;;
75858;SDS011;64504;51.308;8.620;2023-02-15T16:21:49;4.32;;;2.97;;
75858;SDS011;64504;51.308;8.620;2023-02-15T16:24:22;3.08;;;2.83;;
75858;SDS011;64504;51.308;8.620;2023-02-15T16:29:33;2.90;;;2.65;;
75858;SDS011;64504;51.308;8.620;2023-02-15T16:32:14;2.20;;;2.00;;
75858;SDS011;64504;51.308;8.620;2023-02-15T16:34:59;3.88;;;2.42;;
75858;SDS011;64504;51.308;8.620;2023-02-15T16:37:34;4.82;;;2.28;;
75858;SDS011;64504;51.308;8.620;2023-02-15T16:40:00;2.83;;;2.15;;
75858;SDS011;64504;51.308;8.620;2023-02-15T16:42:26;16.98;;;4.20;;
75858;SDS011;64504;51.308;8.620;2023-02-15T16:44:55;2.22;;;1.52;;
75858;SDS011;64504;51.308;8.620;2023-02-15T16:47:26;8.70;;;2.60;;
75858;SDS011;64504;51.308;8.620;2023-02-15T16:49:54;14.57;;;2.95;;
75858;SDS011;64504;51.308;8.620;2023-02-15T16:52:23;4.20;;;3.00;;
75858;SDS011;64504;51.308;8.620;2023-02-15T16:54:59;3.72;;;2.17;;
75858;SDS011;64504;51.308;8.620;2023-02-15T16:57:27;5.93;;;2.05;;
75858;SDS011;64504;51.308;8.620;2023-02-15T16:59:55;4.90;;;3.20;;
75858;SDS011;64504;51.308;8.620;2023-02-15T17:02:27;3.00;;;2.47;;
75858;SDS011;64504;51.308;8.620;2023-02-15T17:05:27;5.47;;;2.97;;
75858;SDS011;64504;51.308;8.620;2023-02-15T17:10:30;4.03;;;3.00;;
75858;SDS011;64504;51.308;8.620;2023-02-15T17:13:15;3.13;;;2.80;;
75858;SDS011;64504;51.308;8.620;2023-02-15T17:15:42;3.42;;;2.97;;
75858;SDS011;64504;51.308;8.620;2023-02-15T17:20:37;3.70;;;3.00;;
75858;SDS011;64504;51.308;8.620;2023-02-15T17:23:04;8.05;;;2.90;;
75858;SDS011;64504;51.308;8.620;2023-02-15T17:25:39;3.55;;;2.78;;
75858;SDS011;64504;51.308;8.620;2023-02-15T17:28:05;3.72;;;3.05;;
75858;SDS011;64504;51.308;8.620;2023-02-15T17:30:39;5.53;;;3.08;;
75858;SDS011;64504;51.308;8.620;2023-02-15T17:33:17;3.30;;;3.10;;
75858;SDS011;64504;51.308;8.620;2023-02-15T17:36:04;8.13;;;3.35;;
75858;SDS011;64504;51.308;8.620;2023-02-15T17:38:31;7.03;;;3.85;;
75858;SDS011;64504;51.308;8.620;2023-02-15T17:40:58;11.20;;;5.13;;
75858;SDS011;64504;51.308;8.620;2023-02-15T17:43:24;7.15;;;3.92;;
75858;SDS011;64504;51.308;8.620;2023-02-15T17:45:52;3.88;;;2.85;;
75858;SDS011;64504;51.308;8.620;2023-02-15T17:48:21;4.85;;;3.53;;
75858;SDS011;64504;51.308;8.620;2023-02-15T17:50:49;7.95;;;4.10;;
75858;SDS011;64504;51.308;8.620;2023-02-15T17:53:15;6.10;;;3.72;;
75858;SDS011;64504;51.308;8.620;2023-02-15T17:55:42;6.65;;;5.47;;